Time;durP1;ratioP1;P1;durP2;ratioP2;P2;SDS_P1;SDS_P2;PMS_P1;PMS_P2;Temp;Humidity;BMP_temperature;BMP_pressure;BME280_temperature;BME280_humidity;BME280_pressure;Samples;Min_cycle;Max_cycle;Signal;HPM_P1;HPM_P2
2022/05/09 00:00:29;;;;;;;6.10;3.63;;;;;;;;;;5052072;28;20395;-54
2022/05/09 00:02:56;;;;;;;6.00;3.43;;;;;;;;;;5051443;28;20425;-54
2022/05/09 00:05:24;;;;;;;7.57;3.40;;;;;;;;;;5052102;28;20410;-54
2022/05/09 00:07:50;;;;;;;6.33;2.80;;;;;;;;;;5051954;28;20402;-54
2022/05/09 00:10:18;;;;;;;4.23;3.20;;;;;;;;;;5051899;28;20413;-54
2022/05/09 00:12:44;;;;;;;5.83;3.00;;;;;;;;;;5051300;28;20484;-54
2022/05/09 00:15:11;;;;;;;4.67;3.57;;;;;;;;;;5051873;28;20445;-55
2022/05/09 00:17:37;;;;;;;11.53;3.53;;;;;;;;;;5052069;28;20468;-54
2022/05/09 00:20:03;;;;;;;4.13;3.10;;;;;;;;;;5051913;28;20429;-54
2022/05/09 00:22:29;;;;;;;7.07;3.37;;;;;;;;;;5051149;28;20492;-54
2022/05/09 00:24:55;;;;;;;8.90;3.80;;;;;;;;;;5051753;28;20436;-54
2022/05/09 00:27:21;;;;;;;6.20;3.37;;;;;;;;;;5051859;28;20413;-54
2022/05/09 00:29:47;;;;;;;6.40;3.80;;;;;;;;;;5051785;28;20523;-54
2022/05/09 00:32:13;;;;;;;4.60;4.00;;;;;;;;;;5051179;28;20394;-54
2022/05/09 00:34:39;;;;;;;8.17;4.30;;;;;;;;;;5051348;28;20424;-54
2022/05/09 00:37:05;;;;;;;6.67;3.77;;;;;;;;;;5051879;28;20551;-54
2022/05/09 00:39:33;;;;;;;5.17;4.70;;;;;;;;;;5055752;28;20401;-54
2022/05/09 00:42:09;;;;;;;4.90;3.80;;;;;;;;;;5055156;28;20466;-55
2022/05/09 00:44:35;;;;;;;5.87;3.90;;;;;;;;;;5055727;28;20466;-54
2022/05/09 00:47:01;;;;;;;7.00;4.80;;;;;;;;;;5055816;28;20459;-54
2022/05/09 00:49:30;;;;;;;7.50;5.17;;;;;;;;;;5055618;28;20917;-54
2022/05/09 00:51:56;;;;;;;7.80;4.60;;;;;;;;;;5054740;28;20432;-55
2022/05/09 00:54:22;;;;;;;6.93;4.63;;;;;;;;;;5055488;28;20421;-54
2022/05/09 00:56:51;;;;;;;8.07;5.13;;;;;;;;;;5055479;28;20548;-54
2022/05/09 00:59:18;;;;;;;7.03;4.27;;;;;;;;;;5055448;28;20401;-54
2022/05/09 01:01:45;;;;;;;4.83;4.33;;;;;;;;;;5054011;28;20612;-54
2022/05/09 01:04:15;;;;;;;7.07;4.43;;;;;;;;;;5054851;28;20429;-54
2022/05/09 01:06:41;;;;;;;6.77;5.70;;;;;;;;;;5054651;28;21227;-54
2022/05/09 01:09:10;;;;;;;5.70;4.10;;;;;;;;;;5054855;28;20401;-54
2022/05/09 01:11:37;;;;;;;7.00;4.67;;;;;;;;;;5054600;28;20401;-54
2022/05/09 01:14:08;;;;;;;6.07;4.30;;;;;;;;;;5055104;28;20420;-55
2022/05/09 01:16:35;;;;;;;7.67;5.27;;;;;;;;;;5055099;28;20483;-54
2022/05/09 01:19:03;;;;;;;7.53;4.93;;;;;;;;;;5055001;28;20429;-54
2022/05/09 01:21:31;;;;;;;7.47;5.60;;;;;;;;;;5054434;28;20401;-54
2022/05/09 01:23:57;;;;;;;12.30;5.90;;;;;;;;;;5054909;28;20457;-54
2022/05/09 01:26:23;;;;;;;14.73;5.03;;;;;;;;;;5055018;28;20440;-54
2022/05/09 01:28:49;;;;;;;7.43;4.63;;;;;;;;;;5054830;28;20886;-54
2022/05/09 01:31:17;;;;;;;7.23;5.17;;;;;;;;;;5054303;28;20493;-54
2022/05/09 01:33:44;;;;;;;10.70;5.47;;;;;;;;;;5054822;28;20508;-54
2022/05/09 01:36:12;;;;;;;6.43;4.97;;;;;;;;;;5054432;28;20551;-54
2022/05/09 01:38:57;;;;;;;5.53;4.60;;;;;;;;;;5054749;28;20836;-54
2022/05/09 01:41:23;;;;;;;4.30;4.00;;;;;;;;;;5054074;28;20760;-54
2022/05/09 01:43:51;;;;;;;9.90;5.23;;;;;;;;;;5054635;28;20425;-54
2022/05/09 01:46:21;;;;;;;5.43;4.93;;;;;;;;;;5054510;28;20826;-54
2022/05/09 01:51:32;;;;;;;5.70;4.90;;;;;;;;;;5053761;28;20417;-54
2022/05/09 01:53:59;;;;;;;8.50;4.70;;;;;;;;;;5054498;28;20448;-54
2022/05/09 01:56:29;;;;;;;6.90;5.27;;;;;;;;;;5054338;28;21035;-54
2022/05/09 01:58:57;;;;;;;9.03;4.73;;;;;;;;;;5054469;28;20436;-54
2022/05/09 02:01:25;;;;;;;5.00;4.50;;;;;;;;;;5053856;28;20425;-55
2022/05/09 02:03:51;;;;;;;5.20;4.70;;;;;;;;;;5054300;28;20413;-54
2022/05/09 02:06:18;;;;;;;4.60;4.20;;;;;;;;;;5054213;28;20764;-55
2022/05/09 02:08:44;;;;;;;5.97;5.17;;;;;;;;;;5054189;28;20436;-54
2022/05/09 02:11:11;;;;;;;6.17;5.10;;;;;;;;;;5053422;28;20404;-54
2022/05/09 02:13:37;;;;;;;7.53;4.50;;;;;;;;;;5054066;28;20425;-54
2022/05/09 02:16:03;;;;;;;5.70;4.47;;;;;;;;;;5054020;28;20452;-54
2022/05/09 02:18:29;;;;;;;7.57;5.07;;;;;;;;;;5053950;28;20401;-54
2022/05/09 02:20:55;;;;;;;10.37;5.17;;;;;;;;;;5053330;28;20401;-54
2022/05/09 02:23:21;;;;;;;8.50;5.40;;;;;;;;;;5053899;28;20421;-54
2022/05/09 02:25:47;;;;;;;8.33;5.53;;;;;;;;;;5053867;28;20482;-54
2022/05/09 02:28:14;;;;;;;8.03;6.20;;;;;;;;;;5053825;28;20759;-54
2022/05/09 02:30:41;;;;;;;7.50;4.50;;;;;;;;;;5053627;28;20417;-54
2022/05/09 02:33:08;;;;;;;8.10;5.13;;;;;;;;;;5053249;28;20445;-54
2022/05/09 02:35:34;;;;;;;7.40;5.43;;;;;;;;;;5053574;28;20904;-54
2022/05/09 02:38:00;;;;;;;7.10;4.67;;;;;;;;;;5053700;28;20412;-54
2022/05/09 02:40:26;;;;;;;7.37;5.40;;;;;;;;;;5053488;28;20484;-54
2022/05/09 02:42:53;;;;;;;8.37;4.83;;;;;;;;;;5052911;28;20421;-54
2022/05/09 02:45:19;;;;;;;11.60;5.37;;;;;;;;;;5053480;28;20435;-54
2022/05/09 02:47:45;;;;;;;8.97;5.17;;;;;;;;;;5053786;28;20745;-54
2022/05/09 02:50:11;;;;;;;5.57;5.07;;;;;;;;;;5053306;28;20406;-54
2022/05/09 02:52:38;;;;;;;7.03;5.17;;;;;;;;;;5052519;28;20421;-54
2022/05/09 02:55:05;;;;;;;6.23;5.53;;;;;;;;;;5053250;28;20413;-54
2022/05/09 02:57:31;;;;;;;9.73;5.30;;;;;;;;;;5053272;28;20496;-54
2022/05/09 02:59:57;;;;;;;5.67;5.07;;;;;;;;;;5052602;28;20500;-54
2022/05/09 03:02:23;;;;;;;10.17;5.40;;;;;;;;;;5052485;28;20408;-54
2022/05/09 03:04:49;;;;;;;8.70;5.67;;;;;;;;;;5053116;28;20400;-54
2022/05/09 03:07:16;;;;;;;15.37;5.90;;;;;;;;;;5053073;28;20773;-54
2022/05/09 03:09:43;;;;;;;8.00;5.67;;;;;;;;;;5052977;28;20404;-54
2022/05/09 03:12:10;;;;;;;9.37;5.50;;;;;;;;;;5052371;28;20399;-54
2022/05/09 03:14:36;;;;;;;10.40;5.10;;;;;;;;;;5052854;28;20424;-54
2022/05/09 03:17:03;;;;;;;8.10;5.80;;;;;;;;;;5052763;28;20919;-54
2022/05/09 03:19:29;;;;;;;6.50;5.40;;;;;;;;;;5052784;28;20437;-54
2022/05/09 03:21:55;;;;;;;6.40;5.30;;;;;;;;;;5052129;28;20411;-54
2022/05/09 03:24:22;;;;;;;8.70;5.70;;;;;;;;;;5052722;28;20432;-54
2022/05/09 03:26:48;;;;;;;8.30;5.30;;;;;;;;;;5052903;28;20402;-54
2022/05/09 03:29:15;;;;;;;7.27;5.87;;;;;;;;;;5052662;28;20401;-53
2022/05/09 03:31:41;;;;;;;8.57;5.77;;;;;;;;;;5051966;28;20401;-54
2022/05/09 03:34:07;;;;;;;10.00;6.23;;;;;;;;;;5052470;28;20849;-54
2022/05/09 03:36:33;;;;;;;12.20;5.63;;;;;;;;;;5052374;28;20449;-54
2022/05/09 03:39:00;;;;;;;8.33;5.90;;;;;;;;;;5052702;28;20402;-54
2022/05/09 03:41:25;;;;;;;10.50;6.40;;;;;;;;;;5051844;28;20900;-54
2022/05/09 03:43:52;;;;;;;8.60;6.50;;;;;;;;;;5052505;28;20419;-54
2022/05/09 03:46:17;;;;;;;12.10;6.80;;;;;;;;;;5052442;28;20778;-54
2022/05/09 03:48:44;;;;;;;9.47;6.83;;;;;;;;;;5052303;28;20405;-54
2022/05/09 03:51:10;;;;;;;12.77;6.53;;;;;;;;;;5051478;28;20889;-54
2022/05/09 03:53:37;;;;;;;7.50;6.63;;;;;;;;;;5052393;28;20516;-54
2022/05/09 03:56:03;;;;;;;9.67;7.10;;;;;;;;;;5052204;28;20487;-54
2022/05/09 03:58:29;;;;;;;10.80;7.00;;;;;;;;;;5052110;28;20448;-54
2022/05/09 04:00:55;;;;;;;10.67;6.83;;;;;;;;;;5051514;28;20400;-54
2022/05/09 04:03:21;;;;;;;9.63;7.07;;;;;;;;;;5051979;28;20454;-54
2022/05/09 04:05:47;;;;;;;9.93;7.47;;;;;;;;;;5052028;28;20408;-54
2022/05/09 04:08:16;;;;;;;9.73;6.67;;;;;;;;;;5052060;28;20411;-54
2022/05/09 04:10:42;;;;;;;9.00;6.60;;;;;;;;;;5051917;28;20406;-54
2022/05/09 04:13:09;;;;;;;8.23;6.50;;;;;;;;;;5050532;28;20472;-54
2022/05/09 04:18:21;;;;;;;13.73;6.00;;;;;;;;;;5051960;28;20442;-54
2022/05/09 04:23:33;;;;;;;8.87;5.93;;;;;;;;;;5052198;28;20467;-54
2022/05/09 04:25:59;;;;;;;15.10;7.27;;;;;;;;;;5052058;28;20796;-54
2022/05/09 04:28:25;;;;;;;9.43;6.50;;;;;;;;;;5051743;28;20412;-53
2022/05/09 04:30:51;;;;;;;10.50;6.30;;;;;;;;;;5051157;28;20752;-54
2022/05/09 04:33:17;;;;;;;6.90;6.20;;;;;;;;;;5051889;28;20428;-53
2022/05/09 04:35:44;;;;;;;9.30;6.90;;;;;;;;;;5051611;28;21052;-54
2022/05/09 04:38:18;;;;;;;17.33;7.27;;;;;;;;;;5051733;28;20406;-54
2022/05/09 04:40:45;;;;;;;8.00;7.07;;;;;;;;;;5051322;28;20877;-55
2022/05/09 04:43:11;;;;;;;9.27;6.03;;;;;;;;;;5051566;28;20428;-53
2022/05/09 04:45:38;;;;;;;7.07;6.37;;;;;;;;;;5051600;28;20402;-54
2022/05/09 04:48:04;;;;;;;8.23;6.60;;;;;;;;;;5051656;28;20754;-53
2022/05/09 04:50:32;;;;;;;8.67;6.33;;;;;;;;;;5051501;28;20500;-54
2022/05/09 04:52:58;;;;;;;6.30;5.70;;;;;;;;;;5050738;28;20532;-53
2022/05/09 04:55:24;;;;;;;13.13;6.57;;;;;;;;;;5051485;28;20449;-54
2022/05/09 04:57:50;;;;;;;12.73;6.73;;;;;;;;;;5051524;28;20936;-55
2022/05/09 05:00:17;;;;;;;16.20;6.87;;;;;;;;;;5051421;28;20401;-55
2022/05/09 05:02:43;;;;;;;9.53;7.23;;;;;;;;;;5050801;28;20425;-53
2022/05/09 05:05:09;;;;;;;7.13;6.43;;;;;;;;;;5051486;28;20397;-54
2022/05/09 05:07:35;;;;;;;7.27;6.40;;;;;;;;;;5051444;28;20401;-54
2022/05/09 05:10:01;;;;;;;10.13;6.47;;;;;;;;;;5051340;28;20394;-54
2022/05/09 05:12:27;;;;;;;8.93;6.17;;;;;;;;;;5050673;28;20405;-54
2022/05/09 05:14:53;;;;;;;7.93;6.33;;;;;;;;;;5051389;28;20425;-54
2022/05/09 05:17:19;;;;;;;7.90;7.10;;;;;;;;;;5051581;28;20522;-54
2022/05/09 05:19:45;;;;;;;9.80;6.67;;;;;;;;;;5051241;28;20413;-54
2022/05/09 05:22:12;;;;;;;8.00;6.77;;;;;;;;;;5050609;28;20443;-54
2022/05/09 05:24:38;;;;;;;8.73;7.10;;;;;;;;;;5053895;28;20428;-54
2022/05/09 05:27:05;;;;;;;9.10;6.37;;;;;;;;;;5055006;28;20488;-54
2022/05/09 05:29:32;;;;;;;8.97;6.37;;;;;;;;;;5054875;28;20467;-54
2022/05/09 05:31:58;;;;;;;7.40;6.70;;;;;;;;;;5054286;28;20409;-53
2022/05/09 05:34:24;;;;;;;9.30;5.90;;;;;;;;;;5054581;28;20427;-53
2022/05/09 05:36:51;;;;;;;12.83;6.70;;;;;;;;;;5054766;28;20539;-54
2022/05/09 05:39:17;;;;;;;18.13;7.20;;;;;;;;;;5054657;28;20897;-54
2022/05/09 05:41:44;;;;;;;7.20;6.00;;;;;;;;;;5054102;28;20574;-53
2022/05/09 05:44:11;;;;;;;11.10;6.03;;;;;;;;;;5054661;28;20448;-54
2022/05/09 05:46:44;;;;;;;17.50;7.23;;;;;;;;;;5054566;28;20410;-54
2022/05/09 05:49:10;;;;;;;6.93;5.80;;;;;;;;;;5054575;28;20494;-53
2022/05/09 05:51:37;;;;;;;8.30;6.27;;;;;;;;;;5053778;28;20791;-54
2022/05/09 05:54:03;;;;;;;9.17;6.37;;;;;;;;;;5054385;28;20443;-54
2022/05/09 05:56:30;;;;;;;7.73;6.80;;;;;;;;;;5054894;28;20471;-54
2022/05/09 05:58:56;;;;;;;11.07;7.17;;;;;;;;;;5054363;28;20406;-54
2022/05/09 06:01:22;;;;;;;9.30;7.30;;;;;;;;;;5053819;28;20413;-54
2022/05/09 06:03:49;;;;;;;9.70;7.13;;;;;;;;;;5054270;28;20428;-54
2022/05/09 06:06:15;;;;;;;9.77;7.90;;;;;;;;;;5054311;28;20417;-54
2022/05/09 06:08:43;;;;;;;10.83;7.40;;;;;;;;;;5054089;28;20420;-54
2022/05/09 06:11:09;;;;;;;9.90;7.10;;;;;;;;;;5053582;28;20433;-54
2022/05/09 06:13:35;;;;;;;9.90;7.17;;;;;;;;;;5053980;28;20514;-54
2022/05/09 06:16:01;;;;;;;20.37;8.73;;;;;;;;;;5054180;28;21036;-54
2022/05/09 06:18:27;;;;;;;13.33;7.70;;;;;;;;;;5054042;28;20772;-54
2022/05/09 06:20:53;;;;;;;13.50;8.40;;;;;;;;;;5053318;28;20755;-54
2022/05/09 06:23:19;;;;;;;16.53;8.00;;;;;;;;;;5053931;28;20425;-54
2022/05/09 06:25:46;;;;;;;10.83;7.50;;;;;;;;;;5053934;28;20414;-55
2022/05/09 06:28:15;;;;;;;8.63;7.00;;;;;;;;;;5053893;28;20410;-54
2022/05/09 06:30:41;;;;;;;10.07;7.07;;;;;;;;;;5053648;28;20417;-54
2022/05/09 06:33:07;;;;;;;15.07;7.50;;;;;;;;;;5051707;28;20475;-55
2022/05/09 06:35:38;;;;;;;8.63;7.17;;;;;;;;;;5052719;28;20528;-55
2022/05/09 06:38:05;;;;;;;11.70;8.03;;;;;;;;;;5053779;28;20416;-55
2022/05/09 06:40:32;;;;;;;8.07;6.93;;;;;;;;;;5054017;28;20842;-55
2022/05/09 06:42:58;;;;;;;10.50;7.13;;;;;;;;;;5052946;28;20433;-55
2022/05/09 06:45:24;;;;;;;8.03;7.27;;;;;;;;;;5053566;28;20413;-54
2022/05/09 06:47:52;;;;;;;13.97;8.60;;;;;;;;;;5053521;28;20398;-54
2022/05/09 06:50:19;;;;;;;14.63;7.60;;;;;;;;;;5053414;28;20412;-55
2022/05/09 06:52:45;;;;;;;11.50;7.40;;;;;;;;;;5052604;28;20487;-54
2022/05/09 06:55:12;;;;;;;13.00;7.00;;;;;;;;;;5053332;28;20488;-54
2022/05/09 06:57:39;;;;;;;9.43;8.43;;;;;;;;;;5053379;28;20408;-54
2022/05/09 07:00:06;;;;;;;9.30;7.23;;;;;;;;;;5053253;28;20913;-55
2022/05/09 07:02:32;;;;;;;9.63;6.80;;;;;;;;;;5052530;28;20400;-55
2022/05/09 07:04:59;;;;;;;9.83;7.13;;;;;;;;;;5053228;28;20379;-55
2022/05/09 07:07:25;;;;;;;9.63;7.30;;;;;;;;;;5053196;28;20397;-55
2022/05/09 07:09:51;;;;;;;10.77;7.40;;;;;;;;;;5053232;28;20746;-54
2022/05/09 07:12:17;;;;;;;11.90;6.50;;;;;;;;;;5052572;28;20380;-54
2022/05/09 07:14:43;;;;;;;10.63;7.10;;;;;;;;;;5052941;28;20391;-55
2022/05/09 07:17:08;;;;;;;10.27;7.37;;;;;;;;;;5052917;28;20453;-55
2022/05/09 07:19:35;;;;;;;11.73;6.80;;;;;;;;;;5052872;28;20381;-55
2022/05/09 07:22:01;;;;;;;6.90;6.20;;;;;;;;;;5052356;28;20418;-55
2022/05/09 07:24:27;;;;;;;10.90;7.33;;;;;;;;;;5053003;28;20495;-54
2022/05/09 07:26:53;;;;;;;8.80;7.63;;;;;;;;;;5052840;28;20417;-55
2022/05/09 07:29:19;;;;;;;18.10;8.20;;;;;;;;;;5052662;28;20384;-55
2022/05/09 07:31:45;;;;;;;9.17;7.17;;;;;;;;;;5052038;28;20402;-55
2022/05/09 07:34:11;;;;;;;10.40;6.93;;;;;;;;;;5051652;28;20497;-55
2022/05/09 07:36:37;;;;;;;10.93;6.47;;;;;;;;;;5052552;28;20426;-55
2022/05/09 07:39:03;;;;;;;11.23;6.63;;;;;;;;;;5052732;28;20789;-55
2022/05/09 07:41:31;;;;;;;9.87;6.60;;;;;;;;;;5051928;28;20379;-55
2022/05/09 07:43:57;;;;;;;13.27;7.10;;;;;;;;;;5052313;28;20385;-54
2022/05/09 07:46:23;;;;;;;12.77;6.90;;;;;;;;;;5052279;28;20428;-55
2022/05/09 07:48:49;;;;;;;8.07;7.03;;;;;;;;;;5052285;28;20408;-55
2022/05/09 07:51:17;;;;;;;6.77;5.90;;;;;;;;;;5051586;28;20538;-56
2022/05/09 07:53:43;;;;;;;8.10;6.00;;;;;;;;;;5052245;28;20444;-55
2022/05/09 07:56:09;;;;;;;6.27;5.10;;;;;;;;;;5051990;28;20968;-55
2022/05/09 07:58:36;;;;;;;5.87;4.97;;;;;;;;;;5060247;28;20415;-55
2022/05/09 08:01:02;;;;;;;7.30;5.23;;;;;;;;;;5071420;28;20411;-55
2022/05/09 08:03:29;;;;;;;8.87;5.00;;;;;;;;;;5069992;28;20443;-55
2022/05/09 08:05:56;;;;;;;6.53;5.53;;;;;;;;;;5061695;28;20601;-55
2022/05/09 08:08:22;;;;;;;8.33;5.33;;;;;;;;;;5059266;28;20460;-55
2022/05/09 08:10:49;;;;;;;7.33;4.70;;;;;;;;;;5071236;28;20404;-55
2022/05/09 08:13:16;;;;;;;6.17;4.30;;;;;;;;;;5071511;28;20444;-55
2022/05/09 08:15:44;;;;;;;6.17;4.03;;;;;;;;;;5071663;28;20816;-55
2022/05/09 08:18:10;;;;;;;8.10;4.97;;;;;;;;;;5069722;28;20420;-55
2022/05/09 08:20:38;;;;;;;7.57;4.70;;;;;;;;;;5071686;28;20928;-54
2022/05/09 08:23:06;;;;;;;5.87;3.90;;;;;;;;;;5070922;28;20429;-55
2022/05/09 08:25:32;;;;;;;5.87;3.90;;;;;;;;;;5071758;28;20745;-55
2022/05/09 08:27:58;;;;;;;6.77;4.10;;;;;;;;;;5071467;28;20423;-56
2022/05/09 08:30:24;;;;;;;7.03;3.90;;;;;;;;;;5071383;28;20546;-55
2022/05/09 08:32:53;;;;;;;4.37;3.80;;;;;;;;;;5070485;28;20420;-55
2022/05/09 08:35:19;;;;;;;5.27;3.83;;;;;;;;;;5071334;28;20839;-55
2022/05/09 08:37:45;;;;;;;5.80;3.70;;;;;;;;;;5071140;28;20392;-55
2022/05/09 08:40:13;;;;;;;5.00;4.47;;;;;;;;;;5071743;28;20480;-55
2022/05/09 08:42:41;;;;;;;6.43;4.43;;;;;;;;;;5070968;28;20405;-55
2022/05/09 08:45:17;;;;;;;4.97;3.50;;;;;;;;;;5071342;28;20400;-56
2022/05/09 08:47:49;;;;;;;8.40;4.40;;;;;;;;;;5071202;28;20408;-55
2022/05/09 08:50:18;;;;;;;6.53;4.30;;;;;;;;;;5071419;28;20443;-55
2022/05/09 08:52:54;;;;;;;7.63;4.43;;;;;;;;;;5070397;28;20825;-55
2022/05/09 08:55:27;;;;;;;10.23;5.13;;;;;;;;;;5070419;28;20404;-56
2022/05/09 08:58:19;;;;;;;10.83;5.50;;;;;;;;;;5070662;28;20403;-55
2022/05/09 09:00:46;;;;;;;5.77;5.07;;;;;;;;;;5064257;28;20420;-56
2022/05/09 09:03:28;;;;;;;7.60;4.90;;;;;;;;;;5074936;28;20903;-55
2022/05/09 09:05:55;;;;;;;9.03;4.90;;;;;;;;;;5075135;28;20404;-55
2022/05/09 09:08:38;;;;;;;6.87;4.67;;;;;;;;;;5074774;28;20412;-55
2022/05/09 09:11:08;;;;;;;9.00;5.13;;;;;;;;;;5074363;28;20777;-55
2022/05/09 09:13:49;;;;;;;7.90;6.10;;;;;;;;;;5075084;28;20787;-55
2022/05/09 09:16:40;;;;;;;8.17;5.07;;;;;;;;;;5074637;28;20539;-55
2022/05/09 09:19:12;;;;;;;5.47;4.43;;;;;;;;;;5075060;28;20400;-55
2022/05/09 09:21:38;;;;;;;10.67;4.80;;;;;;;;;;5074213;28;20408;-56
2022/05/09 09:24:30;;;;;;;5.07;4.50;;;;;;;;;;5075296;28;20977;-55
2022/05/09 09:26:56;;;;;;;7.00;4.30;;;;;;;;;;5073528;28;20939;-55
2022/05/09 09:29:38;;;;;;;9.10;5.20;;;;;;;;;;5074771;28;20408;-55
2022/05/09 09:32:07;;;;;;;8.60;5.20;;;;;;;;;;5073155;28;20420;-55
2022/05/09 09:34:52;;;;;;;5.80;4.60;;;;;;;;;;5074577;28;20427;-56
2022/05/09 09:37:33;;;;;;;7.07;4.60;;;;;;;;;;5074454;28;20464;-55
2022/05/09 09:39:59;;;;;;;12.77;4.70;;;;;;;;;;5074566;28;20404;-55
2022/05/09 09:42:25;;;;;;;5.00;4.20;;;;;;;;;;5062595;28;20979;-55
2022/05/09 09:44:54;;;;;;;8.53;4.93;;;;;;;;;;5073996;28;20408;-55
2022/05/09 09:47:20;;;;;;;8.20;5.77;;;;;;;;;;5074378;28;20417;-55
2022/05/09 09:49:50;;;;;;;6.43;5.80;;;;;;;;;;5074025;28;20416;-55
2022/05/09 09:52:24;;;;;;;8.10;5.40;;;;;;;;;;5073558;28;20514;-55
2022/05/09 09:55:01;;;;;;;4.93;4.53;;;;;;;;;;5074285;28;20458;-55
2022/05/09 09:57:29;;;;;;;6.23;5.03;;;;;;;;;;5074133;28;20451;-55
2022/05/09 09:59:57;;;;;;;5.13;4.63;;;;;;;;;;5070480;28;20408;-56
2022/05/09 10:02:24;;;;;;;7.43;4.60;;;;;;;;;;5072839;28;20409;-55
2022/05/09 10:04:50;;;;;;;6.17;5.20;;;;;;;;;;5073863;28;20435;-55
2022/05/09 10:07:32;;;;;;;6.63;4.40;;;;;;;;;;5073638;28;20775;-57
2022/05/09 10:10:17;;;;;;;4.27;3.70;;;;;;;;;;5072235;28;20409;-55
2022/05/09 10:13:05;;;;;;;4.43;3.63;;;;;;;;;;5063311;28;20443;-56
2022/05/09 10:15:36;;;;;;;5.53;5.00;;;;;;;;;;5073275;28;20452;-55
2022/05/09 10:18:17;;;;;;;7.33;4.53;;;;;;;;;;5071723;28;20432;-56
2022/05/09 10:20:44;;;;;;;7.30;5.27;;;;;;;;;;5073858;28;20401;-56
2022/05/09 10:26:06;;;;;;;5.63;5.17;;;;;;;;;;5073220;28;20780;-55
2022/05/09 10:28:35;;;;;;;7.80;6.47;;;;;;;;;;5073587;28;20503;-55
2022/05/09 10:31:07;;;;;;;8.83;7.20;;;;;;;;;;5072929;28;20411;-55
2022/05/09 10:33:38;;;;;;;6.90;4.87;;;;;;;;;;5071798;28;20436;-56
2022/05/09 10:36:10;;;;;;;9.00;4.97;;;;;;;;;;5071470;28;20918;-56
2022/05/09 10:38:46;;;;;;;6.57;4.50;;;;;;;;;;5073182;28;20755;-56
2022/05/09 10:41:17;;;;;;;6.83;5.50;;;;;;;;;;5072348;28;20408;-55
2022/05/09 10:43:45;;;;;;;8.50;6.20;;;;;;;;;;5073367;28;20424;-55
2022/05/09 10:46:12;;;;;;;7.73;5.63;;;;;;;;;;5073081;28;20439;-56
2022/05/09 10:48:42;;;;;;;5.67;4.77;;;;;;;;;;5073212;28;20405;-55
2022/05/09 10:51:21;;;;;;;8.07;4.80;;;;;;;;;;5072828;28;20416;-57
2022/05/09 10:53:46;;;;;;;4.90;4.47;;;;;;;;;;5073219;28;20420;-55
2022/05/09 10:56:27;;;;;;;3.63;3.33;;;;;;;;;;5072985;28;20838;-56
2022/05/09 10:59:07;;;;;;;4.83;4.00;;;;;;;;;;5073150;28;20170;-55
2022/05/09 11:01:42;;;;;;;7.90;6.10;;;;;;;;;;5072306;28;20779;-56
2022/05/09 11:04:09;;;;;;;5.97;5.30;;;;;;;;;;5073072;28;20484;-55
2022/05/09 11:06:35;;;;;;;6.70;5.17;;;;;;;;;;5072788;28;20424;-55
2022/05/09 11:09:07;;;;;;;8.63;5.37;;;;;;;;;;5073113;28;20405;-55
2022/05/09 11:11:39;;;;;;;6.03;4.93;;;;;;;;;;5072031;28;20178;-57
2022/05/09 11:14:10;;;;;;;3.80;3.50;;;;;;;;;;5072730;28;20507;-56
2022/05/09 11:16:58;;;;;;;7.03;4.60;;;;;;;;;;5072963;28;20464;-56
2022/05/09 11:19:30;;;;;;;5.80;3.40;;;;;;;;;;5072531;28;20416;-57
2022/05/09 11:22:00;;;;;;;5.53;4.37;;;;;;;;;;5071029;28;20668;-56
2022/05/09 11:24:35;;;;;;;4.10;3.70;;;;;;;;;;5072528;28;20919;-56
2022/05/09 11:27:18;;;;;;;5.13;3.90;;;;;;;;;;5072125;28;20457;-55
2022/05/09 11:29:50;;;;;;;5.07;3.57;;;;;;;;;;5072117;28;20734;-56
2022/05/09 11:32:17;;;;;;;5.20;4.33;;;;;;;;;;5070686;28;20924;-56
2022/05/09 11:34:45;;;;;;;7.13;3.30;;;;;;;;;;5072309;28;20884;-56
2022/05/09 11:37:19;;;;;;;3.70;3.40;;;;;;;;;;5071946;28;20509;-56
2022/05/09 11:40:01;;;;;;;4.43;3.90;;;;;;;;;;5071798;28;20417;-56
2022/05/09 11:45:35;;;;;;;7.00;4.30;;;;;;;;;;5072051;28;20416;-55
2022/05/09 11:48:19;;;;;;;4.23;3.80;;;;;;;;;;5071569;28;20778;-55
2022/05/09 11:50:48;;;;;;;6.87;4.07;;;;;;;;;;5071151;28;20415;-57
2022/05/09 11:53:15;;;;;;;4.17;3.77;;;;;;;;;;5071515;28;20496;-56
2022/05/09 11:55:41;;;;;;;4.63;4.10;;;;;;;;;;5071775;28;20456;-55
2022/05/09 11:58:08;;;;;;;5.73;4.33;;;;;;;;;;5071612;28;20470;-55
2022/05/09 12:00:33;;;;;;;5.90;3.87;;;;;;;;;;5071297;28;20491;-55
2022/05/09 12:03:00;;;;;;;4.70;4.03;;;;;;;;;;5071401;28;20421;-56
2022/05/09 12:05:26;;;;;;;3.60;3.30;;;;;;;;;;5072049;28;20191;-55
2022/05/09 12:08:05;;;;;;;4.47;3.70;;;;;;;;;;5071744;28;20397;-55
2022/05/09 12:10:33;;;;;;;3.63;3.30;;;;;;;;;;5071979;28;20400;-56
2022/05/09 12:13:01;;;;;;;6.40;3.53;;;;;;;;;;5071235;28;20424;-56
2022/05/09 12:15:27;;;;;;;5.30;4.03;;;;;;;;;;5071742;28;20404;-56
2022/05/09 12:17:57;;;;;;;3.80;3.50;;;;;;;;;;5071810;28;20762;-56
2022/05/09 12:20:33;;;;;;;6.20;3.43;;;;;;;;;;5072030;28;20170;-55
2022/05/09 12:23:13;;;;;;;5.20;4.10;;;;;;;;;;5071209;28;20916;-56
2022/05/09 12:25:47;;;;;;;5.93;4.17;;;;;;;;;;5071851;28;20435;-57
2022/05/09 12:28:17;;;;;;;4.73;4.33;;;;;;;;;;5071326;28;20439;-56
2022/05/09 12:30:46;;;;;;;6.33;3.67;;;;;;;;;;5071568;28;20412;-56
2022/05/09 12:33:15;;;;;;;4.73;3.43;;;;;;;;;;5070670;28;20460;-57
2022/05/09 12:35:42;;;;;;;4.03;3.73;;;;;;;;;;5071697;28;20809;-55
2022/05/09 12:38:11;;;;;;;3.60;3.30;;;;;;;;;;5071663;28;20408;-56
2022/05/09 12:40:37;;;;;;;3.53;3.23;;;;;;;;;;5072128;28;20400;-56
2022/05/09 12:43:04;;;;;;;3.40;3.20;;;;;;;;;;5071020;28;20417;-56
2022/05/09 12:45:31;;;;;;;5.23;4.73;;;;;;;;;;5071530;28;20416;-56
2022/05/09 12:47:57;;;;;;;3.57;3.27;;;;;;;;;;5071352;28;20424;-56
2022/05/09 12:50:24;;;;;;;3.87;3.57;;;;;;;;;;5071101;28;20416;-56
2022/05/09 12:52:55;;;;;;;4.63;3.60;;;;;;;;;;5070067;28;20444;-56
2022/05/09 12:58:24;;;;;;;4.73;3.63;;;;;;;;;;5071152;28;20969;-56
2022/05/09 13:00:55;;;;;;;4.20;3.53;;;;;;;;;;5070526;28;20412;-56
2022/05/09 13:03:21;;;;;;;3.97;3.67;;;;;;;;;;5071121;28;20523;-55
2022/05/09 13:05:48;;;;;;;3.60;3.30;;;;;;;;;;5071042;28;20862;-56
2022/05/09 13:08:15;;;;;;;6.03;3.60;;;;;;;;;;5071275;28;20916;-56
2022/05/09 13:10:47;;;;;;;4.03;3.53;;;;;;;;;;5069716;28;20443;-56
2022/05/09 13:13:20;;;;;;;4.33;3.77;;;;;;;;;;5070570;28;20435;-56
2022/05/09 13:15:46;;;;;;;4.47;4.07;;;;;;;;;;5070910;28;20944;-56
2022/05/09 13:18:14;;;;;;;4.30;4.00;;;;;;;;;;5071179;28;20419;-56
2022/05/09 13:20:48;;;;;;;4.30;3.70;;;;;;;;;;5070388;28;20416;-56
2022/05/09 13:23:14;;;;;;;3.27;3.00;;;;;;;;;;5071117;28;20868;-55
2022/05/09 13:25:41;;;;;;;3.53;3.23;;;;;;;;;;5070875;28;20511;-56
2022/05/09 13:28:09;;;;;;;4.03;3.40;;;;;;;;;;5071241;28;20439;-56
2022/05/09 13:30:36;;;;;;;3.83;3.53;;;;;;;;;;5070746;28;20420;-55
2022/05/09 13:33:03;;;;;;;4.27;3.53;;;;;;;;;;5070281;28;20436;-56
2022/05/09 13:35:37;;;;;;;4.23;3.43;;;;;;;;;;5070576;28;20782;-55
2022/05/09 13:38:17;;;;;;;5.70;3.00;;;;;;;;;;5070952;28;20415;-56
2022/05/09 13:40:43;;;;;;;3.43;3.23;;;;;;;;;;5070766;28;20412;-56
2022/05/09 13:43:09;;;;;;;3.37;2.93;;;;;;;;;;5070353;28;21050;-56
2022/05/09 13:45:35;;;;;;;3.87;3.53;;;;;;;;;;5073143;28;20420;-56
2022/05/09 13:48:05;;;;;;;3.00;2.80;;;;;;;;;;5074576;28;20408;-56
2022/05/09 13:50:42;;;;;;;3.43;2.93;;;;;;;;;;5074123;28;20420;-56
2022/05/09 13:53:11;;;;;;;4.37;3.03;;;;;;;;;;5073512;28;20451;-56
2022/05/09 13:55:42;;;;;;;3.10;2.90;;;;;;;;;;5073208;28;21022;-57
2022/05/09 13:58:08;;;;;;;2.80;2.60;;;;;;;;;;5072015;28;20424;-56
2022/05/09 14:00:44;;;;;;;8.63;2.90;;;;;;;;;;5073607;28;20778;-57
2022/05/09 14:03:24;;;;;;;4.93;2.97;;;;;;;;;;5073875;28;20416;-57
2022/05/09 14:05:51;;;;;;;3.30;2.90;;;;;;;;;;5074242;28;20511;-57
2022/05/09 14:08:18;;;;;;;3.20;2.90;;;;;;;;;;5073464;28;20425;-56
2022/05/09 14:10:45;;;;;;;2.90;2.70;;;;;;;;;;5073164;28;20419;-57
2022/05/09 14:13:30;;;;;;;3.40;3.07;;;;;;;;;;5073725;28;20523;-57
2022/05/09 14:15:58;;;;;;;4.00;3.20;;;;;;;;;;5065330;28;20959;-57
2022/05/09 14:18:29;;;;;;;3.53;3.23;;;;;;;;;;5073506;28;20421;-56
2022/05/09 14:21:00;;;;;;;3.53;3.03;;;;;;;;;;5072944;28;20408;-57
2022/05/09 14:23:26;;;;;;;3.33;3.13;;;;;;;;;;5071435;28;20798;-56
2022/05/09 14:31:57;;;;;;;7.07;2.87;;;;;;;;;;5072974;28;20846;-56
2022/05/09 14:34:23;;;;;;;3.07;2.77;;;;;;;;;;5073409;28;20475;-56
2022/05/09 14:36:49;;;;;;;3.10;2.90;;;;;;;;;;5073233;28;20555;-56
2022/05/09 14:39:26;;;;;;;3.33;3.03;;;;;;;;;;5072915;28;20435;-56
2022/05/09 14:42:03;;;;;;;3.70;2.77;;;;;;;;;;5061620;28;20459;-55
2022/05/09 14:44:31;;;;;;;3.30;2.70;;;;;;;;;;5073234;28;20440;-56
2022/05/09 14:47:03;;;;;;;4.70;2.73;;;;;;;;;;5072897;28;20448;-56
2022/05/09 14:49:30;;;;;;;2.97;2.53;;;;;;;;;;5072813;28;20489;-57
2022/05/09 14:51:59;;;;;;;5.73;3.03;;;;;;;;;;5072774;28;20428;-56
2022/05/09 14:54:26;;;;;;;3.20;3.00;;;;;;;;;;5072867;28;20437;-57
2022/05/09 14:59:44;;;;;;;4.90;2.33;;;;;;;;;;5073051;28;20430;-56
2022/05/09 15:02:12;;;;;;;5.23;3.33;;;;;;;;;;5072464;28;20400;-56
2022/05/09 15:04:38;;;;;;;3.30;3.00;;;;;;;;;;5072719;28;20416;-55
2022/05/09 15:07:05;;;;;;;3.20;2.80;;;;;;;;;;5072632;28;20401;-56
2022/05/09 15:09:32;;;;;;;4.00;3.33;;;;;;;;;;5072756;28;20786;-57
2022/05/09 15:12:01;;;;;;;3.50;3.20;;;;;;;;;;5072110;28;20790;-55
2022/05/09 15:14:27;;;;;;;3.23;2.93;;;;;;;;;;5072468;28;20954;-56